Fortunia — V2OG3 — position and weather

sailwx.info

Track history (hours):
 
Tides and Currents Weather Stations Pressure Air Temp Water Temp Dewpoint Dewpoint Depression Visibility Wind Speed Wind Dir Waves Ship Positions

Fortunia

Last reported at 2014-Dec-19 21:23 UTC. Time now 2014-Dec-20 02:18 UTC.
Position N 41°14' E 002°12'.

Length 121 m; draft 6.6 m.

Type: Ship. MMSI: 304010638.

Date/timePositionNaut miles runAvg speedWind from/ knotsBaromVisibWave heightAir tempDewpointWater temp
2014-Dec-19 21:23N 41°14' E 002°12'1 0.8
2014-Dec-19 20:33N 41°14' E 002°12'2 1.7
2014-Dec-19 19:32N 41°14' E 002°10'8 7.5
2014-Dec-19 18:29N 41°07' E 002°05'1010.6
2014-Dec-19 17:33N 40°58' E 001°58'1111.3
2014-Dec-19 16:33N 40°48' E 001°52'1111.3
2014-Dec-19 15:33N 40°38' E 001°45'1110.5
2014-Dec-19 14:33N 40°29' E 001°39'10 9.5
2014-Dec-19 13:33N 40°20' E 001°33'1010.1
2014-Dec-19 12:33N 40°11' E 001°28'1010.1
2014-Dec-19 11:33N 40°02' E 001°21'1010.2
2014-Dec-19 10:33N 39°53' E 001°15'1010.3
2014-Dec-19 09:33N 39°44' E 001°09'1510.6
2014-Dec-19 08:05N 39°30' E 000°60'910.7
2014-Dec-19 07:15N 39°22' E 000°54'811.3
2014-Dec-19 06:32N 39°15' E 000°50'3811.2
2014-Dec-19 03:08N 38°41' E 000°27'6911.4
2014-Dec-18 21:08N 37°44' W 000°21'711.1
2014-Dec-18 20:32N 37°39' W 000°26'1110.9
2014-Dec-18 19:31N 37°30' W 000°35'1010.8
2014-Dec-18 18:33N 37°31' W 000°48'10 9.5
2014-Dec-18 17:33N 37°34' W 000°59'1 1.4
2014-Dec-18 16:32N 37°36' W 000°58'0 0.0
2014-Dec-18 15:32N 37°36' W 000°58'0 0.0
2014-Dec-18 14:31N 37°36' W 000°58'0 0.0
2014-Dec-18 13:31N 37°36' W 000°58'0 0.0
2014-Dec-18 12:31N 37°36' W 000°58'0 0.0
2014-Dec-18 11:33N 37°36' W 000°59'0 0.0
2014-Dec-18 10:33N 37°36' W 000°58'0 0.0
2014-Dec-18 09:32N 37°36' W 000°58'0 0.0
2014-Dec-18 08:32N 37°36' W 000°58'0 0.0
2014-Dec-18 07:31N 37°36' W 000°58'1 1.4
2014-Dec-18 06:33N 37°34' W 000°59'10 9.7
2014-Dec-18 05:33N 37°30' W 000°48'1211.6
2014-Dec-18 04:33N 37°28' W 000°34'1211.4
2014-Dec-18 03:30N 37°25' W 000°19'  
Track history (hours):
 
Tides and Currents Weather Stations Pressure Air Temp Water Temp Dewpoint Dewpoint Depression Visibility Wind Speed Wind Dir Waves Ship Positions

Fortunia

Last reported at 2014-Dec-19 21:23 UTC. Time now 2014-Dec-20 02:18 UTC.
Position N 41°14' E 002°12'.

Length 121 m; draft 6.6 m.

Type: Ship. MMSI: 304010638.

Date/timePositionNaut miles runAvg speedWind from/ knotsBaromVisibWave heightAir tempDewpointWater temp
2014-Dec-19 21:23N 41°14' E 002°12'1 0.8
2014-Dec-19 20:33N 41°14' E 002°12'2 1.7
2014-Dec-19 19:32N 41°14' E 002°10'8 7.5
2014-Dec-19 18:29N 41°07' E 002°05'1010.6
2014-Dec-19 17:33N 40°58' E 001°58'1111.3
2014-Dec-19 16:33N 40°48' E 001°52'1111.3
2014-Dec-19 15:33N 40°38' E 001°45'1110.5
2014-Dec-19 14:33N 40°29' E 001°39'10 9.5
2014-Dec-19 13:33N 40°20' E 001°33'1010.1
2014-Dec-19 12:33N 40°11' E 001°28'1010.1
2014-Dec-19 11:33N 40°02' E 001°21'1010.2
2014-Dec-19 10:33N 39°53' E 001°15'1010.3
2014-Dec-19 09:33N 39°44' E 001°09'1510.6
2014-Dec-19 08:05N 39°30' E 000°60'910.7
2014-Dec-19 07:15N 39°22' E 000°54'811.3
2014-Dec-19 06:32N 39°15' E 000°50'3811.2
2014-Dec-19 03:08N 38°41' E 000°27'6911.4
2014-Dec-18 21:08N 37°44' W 000°21'711.1
2014-Dec-18 20:32N 37°39' W 000°26'1110.9
2014-Dec-18 19:31N 37°30' W 000°35'1010.8
2014-Dec-18 18:33N 37°31' W 000°48'10 9.5
2014-Dec-18 17:33N 37°34' W 000°59'1 1.4
2014-Dec-18 16:32N 37°36' W 000°58'0 0.0
2014-Dec-18 15:32N 37°36' W 000°58'0 0.0
2014-Dec-18 14:31N 37°36' W 000°58'0 0.0
2014-Dec-18 13:31N 37°36' W 000°58'0 0.0
2014-Dec-18 12:31N 37°36' W 000°58'0 0.0
2014-Dec-18 11:33N 37°36' W 000°59'0 0.0
2014-Dec-18 10:33N 37°36' W 000°58'0 0.0
2014-Dec-18 09:32N 37°36' W 000°58'0 0.0
2014-Dec-18 08:32N 37°36' W 000°58'0 0.0
2014-Dec-18 07:31N 37°36' W 000°58'1 1.4
2014-Dec-18 06:33N 37°34' W 000°59'10 9.7
2014-Dec-18 05:33N 37°30' W 000°48'1211.6
2014-Dec-18 04:33N 37°28' W 000°34'1211.4
2014-Dec-18 03:30N 37°25' W 000°19'  

Dump ship's entire track history